createdAt,value
2022-10-15T00:02:11.694Z,12.80
2022-10-15T00:04:41.921Z,12.80
2022-10-15T00:07:12.061Z,12.80
2022-10-15T00:09:42.587Z,12.80
2022-10-15T00:12:15.272Z,12.80
2022-10-15T00:14:45.564Z,12.80
2022-10-15T00:17:15.781Z,12.80
2022-10-15T00:19:45.906Z,12.80
2022-10-15T00:22:16.049Z,12.80
2022-10-15T00:24:46.358Z,12.80
2022-10-15T00:27:19.322Z,12.70
2022-10-15T00:29:49.481Z,12.70
2022-10-15T00:32:19.833Z,12.70
2022-10-15T00:34:50.479Z,12.70
2022-10-15T00:37:21.483Z,12.70
2022-10-15T00:39:51.781Z,12.70
2022-10-15T00:42:24.907Z,12.70
2022-10-15T00:45:00.807Z,12.70
2022-10-15T00:47:42.131Z,12.70
2022-10-15T00:50:16.992Z,12.70
2022-10-15T00:52:53.035Z,12.70
2022-10-15T00:55:31.725Z,12.70
2022-10-15T00:58:09.496Z,12.70
2022-10-15T01:00:39.736Z,12.70
2022-10-15T01:03:10.536Z,12.70
2022-10-15T01:05:42.761Z,12.70
2022-10-15T01:08:13.041Z,12.70
2022-10-15T01:10:52.368Z,12.70
2022-10-15T01:13:34.724Z,12.70
2022-10-15T01:19:09.452Z,12.70
2022-10-15T01:21:46.214Z,12.70
2022-10-15T01:24:46.163Z,12.70
2022-10-15T01:27:30.793Z,12.70
2022-10-15T01:30:27.317Z,12.80
2022-10-15T01:33:31.012Z,12.70
2022-10-15T01:36:11.923Z,12.80
2022-10-15T01:38:54.788Z,12.70
2022-10-15T01:41:37.187Z,12.80
2022-10-15T01:44:12.972Z,12.70
2022-10-15T01:46:51.530Z,12.70
2022-10-15T01:49:26.447Z,12.70
2022-10-15T01:51:58.875Z,12.70
2022-10-15T01:54:31.129Z,12.70
2022-10-15T01:57:02.741Z,12.80
2022-10-15T01:59:36.116Z,12.70
2022-10-15T02:02:09.030Z,12.70
2022-10-15T02:04:39.367Z,12.70
2022-10-15T02:07:12.829Z,12.70
2022-10-15T02:09:53.193Z,12.70
2022-10-15T02:12:40.041Z,12.70
2022-10-15T02:15:20.646Z,12.80
2022-10-15T02:18:04.851Z,12.70
2022-10-15T02:20:43.552Z,12.70
2022-10-15T02:23:21.671Z,12.70
2022-10-15T02:25:54.058Z,12.80
2022-10-15T02:28:26.653Z,12.80
2022-10-15T02:30:59.229Z,12.80
2022-10-15T02:33:34.335Z,12.80
2022-10-15T02:36:05.336Z,12.80
2022-10-15T02:38:38.387Z,12.80
2022-10-15T02:41:10.338Z,12.80
2022-10-15T02:43:42.937Z,12.80
2022-10-15T02:46:15.167Z,12.70
2022-10-15T02:48:48.435Z,12.70
2022-10-15T02:51:19.018Z,12.70
2022-10-15T02:53:49.552Z,12.80
2022-10-15T02:56:19.965Z,12.80
2022-10-15T02:58:50.180Z,12.80
2022-10-15T03:01:20.489Z,12.80
2022-10-15T03:03:53.809Z,12.80
2022-10-15T03:06:24.322Z,12.80
2022-10-15T03:08:54.684Z,12.80
2022-10-15T03:11:25.011Z,12.80
2022-10-15T03:13:55.414Z,12.80
2022-10-15T03:16:25.673Z,12.80
2022-10-15T03:18:58.692Z,12.80
2022-10-15T03:21:31.135Z,12.80
2022-10-15T03:24:01.828Z,12.90
2022-10-15T03:26:32.202Z,12.80
2022-10-15T03:29:02.472Z,12.90
2022-10-15T03:31:32.724Z,12.80
2022-10-15T03:34:05.808Z,12.80
2022-10-15T03:36:36.027Z,12.90
2022-10-15T03:39:06.634Z,12.90
2022-10-15T03:41:37.233Z,12.90
2022-10-15T03:44:09.503Z,12.90
2022-10-15T03:46:39.820Z,12.90
2022-10-15T03:49:12.704Z,12.90
2022-10-15T03:51:43.081Z,12.90
2022-10-15T03:54:13.245Z,12.90
2022-10-15T03:56:43.383Z,12.90
2022-10-15T03:59:13.709Z,12.90
2022-10-15T04:01:44.077Z,12.90
2022-10-15T04:04:17.055Z,12.90
2022-10-15T04:06:48.064Z,12.90
2022-10-15T04:09:18.561Z,12.90
2022-10-15T04:11:49.115Z,12.90
2022-10-15T04:14:20.308Z,12.90
2022-10-15T04:16:50.529Z,12.90
2022-10-15T04:19:23.415Z,12.90
2022-10-15T04:21:53.950Z,12.90
2022-10-15T04:24:24.641Z,12.90
2022-10-15T04:26:54.925Z,12.90
2022-10-15T04:29:25.488Z,12.90
2022-10-15T04:31:55.714Z,12.90
2022-10-15T04:34:28.815Z,12.90
2022-10-15T04:36:59.072Z,12.90
2022-10-15T04:39:29.607Z,12.90
2022-10-15T04:42:00.316Z,13.00
2022-10-15T04:44:30.797Z,12.90
2022-10-15T04:47:01.443Z,13.00
2022-10-15T04:49:34.496Z,13.00
2022-10-15T04:52:04.728Z,13.00
2022-10-15T04:54:35.037Z,13.00
2022-10-15T04:57:07.068Z,13.00
2022-10-15T04:59:37.320Z,13.00
2022-10-15T05:02:07.916Z,13.00
2022-10-15T05:04:40.996Z,13.00
2022-10-15T05:07:11.181Z,13.00
2022-10-15T05:09:46.012Z,13.00
2022-10-15T05:12:16.708Z,13.10
2022-10-15T05:14:47.100Z,13.00
2022-10-15T05:17:17.437Z,13.00
2022-10-15T05:19:50.406Z,13.10
2022-10-15T05:22:20.692Z,13.10
2022-10-15T05:24:51.209Z,13.00
2022-10-15T05:27:21.651Z,13.00
2022-10-15T05:29:52.159Z,13.10
2022-10-15T05:34:56.878Z,13.10
2022-10-15T05:37:27.205Z,13.10
2022-10-15T05:39:57.569Z,13.00
2022-10-15T05:42:27.958Z,13.10
2022-10-15T05:44:58.200Z,13.10
2022-10-15T05:47:28.710Z,13.10
2022-10-15T05:50:01.595Z,13.10
2022-10-15T05:52:31.613Z,13.10
2022-10-15T05:55:02.193Z,13.10
2022-10-15T05:57:32.474Z,13.10
2022-10-15T06:00:02.851Z,13.10
2022-10-15T06:02:34.616Z,13.10
2022-10-15T06:05:09.189Z,13.20
2022-10-15T06:07:39.709Z,13.20
2022-10-15T06:10:11.171Z,13.20
2022-10-15T06:12:42.845Z,13.20
2022-10-15T06:15:14.468Z,13.20
2022-10-15T06:17:44.863Z,13.20
2022-10-15T06:20:18.672Z,13.20
2022-10-15T06:22:49.274Z,13.30
2022-10-15T06:25:20.073Z,13.30
2022-10-15T06:27:50.483Z,13.20
2022-10-15T06:30:21.415Z,13.20
2022-10-15T06:32:52.513Z,13.20
2022-10-15T06:35:27.274Z,13.20
2022-10-15T06:38:02.141Z,13.20
2022-10-15T06:40:34.392Z,13.30
2022-10-15T06:43:09.170Z,13.30
2022-10-15T06:45:42.200Z,13.30
2022-10-15T06:48:12.852Z,13.30
2022-10-15T06:50:46.035Z,13.30
2022-10-15T06:53:16.904Z,13.40
2022-10-15T06:55:47.597Z,13.50
2022-10-15T06:58:18.220Z,13.50
2022-10-15T07:00:48.546Z,13.60
2022-10-15T07:03:18.910Z,13.70
2022-10-15T07:05:51.990Z,13.70
2022-10-15T07:08:22.577Z,13.80
2022-10-15T07:10:52.945Z,13.80
2022-10-15T07:13:25.994Z,13.90
2022-10-15T07:15:56.806Z,13.80
2022-10-15T07:18:27.303Z,13.90
2022-10-15T07:21:00.645Z,13.90
2022-10-15T07:23:31.368Z,14.00
2022-10-15T07:26:02.522Z,14.00
2022-10-15T07:28:33.087Z,14.10
2022-10-15T07:31:08.949Z,14.10
2022-10-15T07:33:39.811Z,14.10
2022-10-15T07:36:15.749Z,14.10
2022-10-15T07:38:46.778Z,14.10
2022-10-15T07:41:17.549Z,14.10
2022-10-15T07:43:48.246Z,14.20
2022-10-15T07:46:18.621Z,14.20
2022-10-15T07:48:49.080Z,14.30
2022-10-15T07:51:22.278Z,14.40
2022-10-15T07:53:52.736Z,14.50
2022-10-15T07:56:23.769Z,14.50
2022-10-15T07:58:54.581Z,14.50
2022-10-15T08:01:25.350Z,14.60
2022-10-15T08:03:55.568Z,14.70
2022-10-15T08:06:28.472Z,14.80
2022-10-15T08:08:58.701Z,14.90
2022-10-15T08:11:28.935Z,15.00
2022-10-15T08:14:03.900Z,15.10
2022-10-15T08:16:34.005Z,15.20
2022-10-15T08:19:04.158Z,15.30
2022-10-15T08:21:40.945Z,15.30
2022-10-15T08:24:13.103Z,15.40
2022-10-15T08:26:43.590Z,15.50
2022-10-15T08:29:14.465Z,15.50
2022-10-15T08:31:45.265Z,15.40
2022-10-15T08:34:15.486Z,15.40
2022-10-15T08:36:48.427Z,15.50
2022-10-15T08:39:18.602Z,15.50
2022-10-15T08:41:53.215Z,15.60
2022-10-15T08:44:26.659Z,15.70
2022-10-15T08:47:02.877Z,15.80
2022-10-15T08:49:47.115Z,15.80
2022-10-15T08:52:35.809Z,15.90
2022-10-15T08:55:07.537Z,15.90
2022-10-15T08:57:45.185Z,16.00
2022-10-15T09:00:21.868Z,16.20
2022-10-15T09:03:01.404Z,16.30
2022-10-15T09:05:44.612Z,16.20
2022-10-15T09:08:29.995Z,16.30
2022-10-15T09:11:06.256Z,16.40
2022-10-15T09:13:41.819Z,16.40
2022-10-15T09:16:19.631Z,16.40
2022-10-15T09:18:52.561Z,16.20
2022-10-15T09:21:25.900Z,16.20
2022-10-15T09:24:03.834Z,16.40
2022-10-15T09:26:55.021Z,16.40
2022-10-15T09:29:34.233Z,16.40
2022-10-15T09:32:16.722Z,16.30
2022-10-15T09:34:52.729Z,16.20
2022-10-15T09:37:30.320Z,16.10
2022-10-15T09:40:36.002Z,16.10
2022-10-15T09:43:07.497Z,16.00
2022-10-15T09:45:37.760Z,16.00
2022-10-15T09:48:19.060Z,16.30
2022-10-15T09:50:58.637Z,16.50
2022-10-15T09:53:45.866Z,16.70
2022-10-15T09:56:22.612Z,16.70
2022-10-15T09:58:57.345Z,16.60
2022-10-15T10:01:29.347Z,16.60
2022-10-15T10:04:16.252Z,16.60
2022-10-15T10:06:48.887Z,16.70
2022-10-15T10:09:23.867Z,16.80
2022-10-15T10:11:59.624Z,17.00
2022-10-15T10:14:34.141Z,17.10
2022-10-15T10:17:18.215Z,17.10
2022-10-15T10:20:07.480Z,16.90
2022-10-15T10:22:50.449Z,16.80
2022-10-15T10:25:42.628Z,16.80
2022-10-15T10:28:39.377Z,16.80
2022-10-15T10:31:14.747Z,16.70
2022-10-15T10:33:50.681Z,16.70
2022-10-15T10:36:30.952Z,16.70
2022-10-15T10:39:07.098Z,16.70
2022-10-15T10:41:53.975Z,16.80
2022-10-15T10:44:32.591Z,16.80
2022-10-15T10:47:14.649Z,16.90
2022-10-15T10:49:47.419Z,16.90
2022-10-15T10:52:28.414Z,17.00
2022-10-15T10:55:08.017Z,16.90
2022-10-15T10:57:52.908Z,16.90
2022-10-15T11:00:29.221Z,16.90
2022-10-15T11:03:00.975Z,17.00
2022-10-15T11:05:34.610Z,16.90
2022-10-15T11:08:18.071Z,16.90
2022-10-15T11:10:58.415Z,16.90
2022-10-15T11:13:48.271Z,16.90
2022-10-15T11:16:30.809Z,16.90
2022-10-15T11:19:19.087Z,17.00
2022-10-15T11:22:12.438Z,17.10
2022-10-15T11:24:55.738Z,17.00
2022-10-15T11:27:53.746Z,17.10
2022-10-15T11:30:45.146Z,17.30
2022-10-15T11:33:46.287Z,17.50
2022-10-15T11:36:36.119Z,17.40
2022-10-15T11:39:24.541Z,17.30
2022-10-15T11:42:04.301Z,17.30
2022-10-15T11:44:55.734Z,17.30
2022-10-15T11:47:48.508Z,17.30
2022-10-15T11:50:33.609Z,17.30
2022-10-15T11:53:38.914Z,17.50
2022-10-15T11:56:15.250Z,17.50
2022-10-15T11:58:51.128Z,17.50
2022-10-15T12:01:27.184Z,17.60
2022-10-15T12:04:04.095Z,17.60
2022-10-15T12:06:45.055Z,17.60
2022-10-15T12:09:22.293Z,17.60
2022-10-15T12:12:02.153Z,17.60
2022-10-15T12:14:43.060Z,17.60
2022-10-15T12:17:24.660Z,17.80
2022-10-15T12:19:59.033Z,17.90
2022-10-15T12:22:41.641Z,17.90
2022-10-15T12:25:51.289Z,18.20
2022-10-15T12:28:25.492Z,18.20
2022-10-15T12:31:02.482Z,18.30
2022-10-15T12:33:39.291Z,18.40
2022-10-15T12:36:28.310Z,18.30
2022-10-15T12:39:12.819Z,18.40
2022-10-15T12:41:54.880Z,18.40
2022-10-15T12:44:29.456Z,18.40
2022-10-15T12:47:00.894Z,18.40
2022-10-15T12:49:49.814Z,18.20
2022-10-15T12:52:55.800Z,17.90
2022-10-15T12:55:31.376Z,18.00
2022-10-15T12:58:08.259Z,17.90
2022-10-15T13:00:45.575Z,17.80
2022-10-15T13:03:39.700Z,17.80
2022-10-15T13:06:26.617Z,17.70
2022-10-15T13:09:09.969Z,17.70
2022-10-15T13:11:45.836Z,17.60
2022-10-15T13:14:37.622Z,17.60
2022-10-15T13:17:17.540Z,17.60
2022-10-15T13:19:59.834Z,17.70
2022-10-15T13:22:32.479Z,17.80
2022-10-15T13:25:03.343Z,17.80
2022-10-15T13:27:37.755Z,17.70
2022-10-15T13:30:16.374Z,17.60
2022-10-15T13:32:52.086Z,17.60
2022-10-15T13:35:26.441Z,17.50
2022-10-15T13:37:56.915Z,17.50
2022-10-15T13:40:29.953Z,17.50
2022-10-15T13:43:04.660Z,17.50
2022-10-15T13:45:38.067Z,17.50
2022-10-15T13:48:15.310Z,17.50
2022-10-15T13:50:45.671Z,17.50
2022-10-15T13:53:25.564Z,17.50
2022-10-15T13:55:59.501Z,17.50
2022-10-15T13:58:31.480Z,17.40
2022-10-15T14:01:10.338Z,17.40
2022-10-15T14:03:41.679Z,17.50
2022-10-15T14:06:20.175Z,17.40
2022-10-15T14:08:52.934Z,17.40
2022-10-15T14:11:24.035Z,17.50
2022-10-15T14:13:56.680Z,17.50
2022-10-15T14:16:35.913Z,17.50
2022-10-15T14:19:15.799Z,17.50
2022-10-15T14:21:52.054Z,17.50
2022-10-15T14:24:25.414Z,17.60
2022-10-15T14:26:55.917Z,17.70
2022-10-15T14:29:30.282Z,17.80
2022-10-15T14:32:03.510Z,18.00
2022-10-15T14:34:42.060Z,18.00
2022-10-15T14:37:36.659Z,18.00
2022-10-15T14:40:16.819Z,18.00
2022-10-15T14:42:49.337Z,17.90
2022-10-15T14:45:27.500Z,17.70
2022-10-15T14:48:03.593Z,17.60
2022-10-15T14:50:36.096Z,17.50
2022-10-15T14:53:13.389Z,17.40
2022-10-15T14:55:51.089Z,17.30
2022-10-15T14:58:24.699Z,17.30
2022-10-15T15:01:01.441Z,17.30
2022-10-15T15:03:42.015Z,17.20
2022-10-15T15:06:13.176Z,17.20
2022-10-15T15:08:43.646Z,17.20
2022-10-15T15:11:17.043Z,17.20
2022-10-15T15:13:49.595Z,17.10
2022-10-15T15:16:21.552Z,17.10
2022-10-15T15:18:54.648Z,17.20
2022-10-15T15:21:26.839Z,17.10
2022-10-15T15:23:57.365Z,17.20
2022-10-15T15:26:27.778Z,17.10
2022-10-15T15:28:58.462Z,17.10
2022-10-15T15:31:29.538Z,17.10
2022-10-15T15:34:02.493Z,17.10
2022-10-15T15:36:32.728Z,17.00
2022-10-15T15:39:03.150Z,16.90
2022-10-15T15:41:34.108Z,16.90
2022-10-15T15:44:04.833Z,16.80
2022-10-15T15:46:35.166Z,16.80
2022-10-15T15:49:08.347Z,16.70
2022-10-15T15:51:38.586Z,16.70
2022-10-15T15:54:10.664Z,16.60
2022-10-15T15:56:41.599Z,16.60
2022-10-15T15:59:12.003Z,16.60
2022-10-15T16:01:42.333Z,16.60
2022-10-15T16:04:15.828Z,16.50
2022-10-15T16:06:49.023Z,16.50
2022-10-15T16:09:22.661Z,16.50
2022-10-15T16:11:53.841Z,16.40
2022-10-15T16:14:24.114Z,16.30
2022-10-15T16:16:54.392Z,16.30
2022-10-15T16:19:27.189Z,16.30
2022-10-15T16:21:57.644Z,16.20
2022-10-15T16:24:28.119Z,16.20
2022-10-15T16:26:58.331Z,16.10
2022-10-15T16:29:28.664Z,16.00
2022-10-15T16:31:58.960Z,15.90
2022-10-15T16:34:32.045Z,15.90
2022-10-15T16:37:02.341Z,15.80
2022-10-15T16:39:32.508Z,15.80
2022-10-15T16:42:03.687Z,15.80
2022-10-15T16:44:33.873Z,15.70
2022-10-15T16:47:04.787Z,15.70
2022-10-15T16:49:37.684Z,15.60
2022-10-15T16:52:08.236Z,15.60
2022-10-15T16:54:39.030Z,15.50
2022-10-15T16:57:09.639Z,15.50
2022-10-15T16:59:39.864Z,15.40
2022-10-15T17:02:10.271Z,15.30
2022-10-15T17:04:43.437Z,15.30
2022-10-15T17:07:13.692Z,15.20
2022-10-15T17:09:45.162Z,15.20
2022-10-15T17:12:16.367Z,15.20
2022-10-15T17:14:53.611Z,15.20
2022-10-15T17:17:23.924Z,15.20
2022-10-15T17:19:57.217Z,15.10
2022-10-15T17:22:27.757Z,15.10
2022-10-15T17:24:58.184Z,15.10
2022-10-15T17:27:28.588Z,15.00
2022-10-15T17:29:59.043Z,15.00
2022-10-15T17:32:29.399Z,15.00
2022-10-15T17:35:03.960Z,15.00
2022-10-15T17:40:25.131Z,14.90
2022-10-15T17:42:55.788Z,14.90
2022-10-15T17:45:26.757Z,14.90
2022-10-15T17:47:57.118Z,14.90
2022-10-15T17:50:30.168Z,14.90
2022-10-15T17:53:02.658Z,14.90
2022-10-15T17:55:33.409Z,14.80
2022-10-15T17:58:03.781Z,14.90
2022-10-15T18:00:34.105Z,14.80
2022-10-15T18:03:04.953Z,14.80
2022-10-15T18:05:38.265Z,14.80
2022-10-15T18:08:10.177Z,14.70
2022-10-15T18:10:40.884Z,14.70
2022-10-15T18:13:11.442Z,14.60
2022-10-15T18:15:47.954Z,14.60
2022-10-15T18:18:19.092Z,14.60
2022-10-15T18:20:52.398Z,14.60
2022-10-15T18:23:24.991Z,14.60
2022-10-15T18:26:04.714Z,14.60
2022-10-15T18:28:36.829Z,14.60
2022-10-15T18:31:08.415Z,14.60
2022-10-15T18:33:40.720Z,14.60
2022-10-15T18:36:17.469Z,14.60
2022-10-15T18:38:47.787Z,14.50
2022-10-15T18:41:20.003Z,14.50
2022-10-15T18:43:53.550Z,14.50
2022-10-15T18:46:24.368Z,14.50
2022-10-15T18:48:54.846Z,14.50
2022-10-15T18:51:28.043Z,14.50
2022-10-15T18:53:58.868Z,14.50
2022-10-15T18:56:29.267Z,14.50
2022-10-15T18:58:59.602Z,14.50
2022-10-15T19:01:32.904Z,14.40
2022-10-15T19:04:06.297Z,14.50
2022-10-15T19:06:44.584Z,14.40
2022-10-15T19:09:17.529Z,14.40
2022-10-15T19:11:50.682Z,14.40
2022-10-15T19:14:21.376Z,14.40
2022-10-15T19:16:52.392Z,14.40
2022-10-15T19:19:25.701Z,14.40
2022-10-15T19:21:58.661Z,14.40
2022-10-15T19:24:29.389Z,14.40
2022-10-15T19:26:59.856Z,14.40
2022-10-15T19:29:33.020Z,14.40
2022-10-15T19:32:06.208Z,14.40
2022-10-15T19:34:37.590Z,14.30
2022-10-15T19:37:10.594Z,14.30
2022-10-15T19:39:41.403Z,14.30
2022-10-15T19:42:13.147Z,14.30
2022-10-15T19:44:43.619Z,14.20
2022-10-15T19:47:15.386Z,14.20
2022-10-15T19:49:45.716Z,14.20
2022-10-15T19:52:18.765Z,14.20
2022-10-15T19:54:49.363Z,14.20
2022-10-15T19:57:19.567Z,14.10
2022-10-15T19:59:49.969Z,14.10
2022-10-15T20:02:20.335Z,14.10
2022-10-15T20:04:50.511Z,14.20
2022-10-15T20:07:23.600Z,14.20
2022-10-15T20:09:54.167Z,14.20
2022-10-15T20:12:24.596Z,14.20
2022-10-15T20:14:54.980Z,14.20
2022-10-15T20:17:25.845Z,14.20
2022-10-15T20:19:57.152Z,14.20
2022-10-15T20:22:30.789Z,14.20
2022-10-15T20:25:01.066Z,14.20
2022-10-15T20:27:31.488Z,14.20
2022-10-15T20:30:01.859Z,14.20
2022-10-15T20:32:35.665Z,14.20
2022-10-15T20:35:07.531Z,14.20
2022-10-15T20:37:40.619Z,14.20
2022-10-15T20:40:12.373Z,14.30
2022-10-15T20:42:42.762Z,14.30
2022-10-15T20:45:16.344Z,14.30
2022-10-15T20:47:51.872Z,14.30
2022-10-15T20:50:27.442Z,14.30
2022-10-15T20:53:01.515Z,14.30
2022-10-15T20:55:32.333Z,14.30
2022-10-15T20:58:03.028Z,14.30
2022-10-15T21:00:33.639Z,14.30
2022-10-15T21:03:03.993Z,14.30
2022-10-15T21:05:34.264Z,14.40
2022-10-15T21:08:07.642Z,14.30
2022-10-15T21:10:38.894Z,14.40
2022-10-15T21:13:09.276Z,14.40
2022-10-15T21:15:39.539Z,14.40
2022-10-15T21:18:09.948Z,14.40
2022-10-15T21:20:40.529Z,14.40
2022-10-15T21:23:13.923Z,14.50
2022-10-15T21:25:44.489Z,14.50
2022-10-15T21:28:15.529Z,14.50
2022-10-15T21:30:45.943Z,14.50
2022-10-15T21:33:16.264Z,14.50
2022-10-15T21:35:46.589Z,14.50
2022-10-15T21:38:19.680Z,14.50
2022-10-15T21:40:53.130Z,14.50
2022-10-15T21:43:23.590Z,14.50
2022-10-15T21:45:54.231Z,14.50
2022-10-15T21:48:24.563Z,14.50
2022-10-15T21:50:54.732Z,14.40
2022-10-15T21:53:27.677Z,14.40
2022-10-15T21:55:58.066Z,14.40
2022-10-15T21:58:28.255Z,14.40
2022-10-15T22:00:58.586Z,14.40
2022-10-15T22:03:28.768Z,14.30
2022-10-15T22:06:01.557Z,14.30
2022-10-15T22:08:34.743Z,14.30
2022-10-15T22:11:13.274Z,14.20
2022-10-15T22:13:44.822Z,14.30
2022-10-15T22:16:16.084Z,14.30
2022-10-15T22:18:46.924Z,14.30
2022-10-15T22:21:20.987Z,14.30
2022-10-15T22:23:55.885Z,14.30
2022-10-15T22:26:29.273Z,14.30
2022-10-15T22:29:02.282Z,14.20
2022-10-15T22:31:32.896Z,14.30
2022-10-15T22:34:03.611Z,14.30
2022-10-15T22:36:34.444Z,14.20
2022-10-15T22:39:09.706Z,14.30
2022-10-15T22:41:42.761Z,14.30
2022-10-15T22:44:15.947Z,14.30
2022-10-15T22:46:49.602Z,14.30
2022-10-15T22:49:22.927Z,14.30
2022-10-15T22:51:54.009Z,14.30
2022-10-15T22:54:26.757Z,14.30
2022-10-15T22:56:56.973Z,14.20
2022-10-15T22:59:27.201Z,14.20
2022-10-15T23:01:57.372Z,14.30
2022-10-15T23:04:27.488Z,14.30
2022-10-15T23:06:57.780Z,14.30
2022-10-15T23:09:30.689Z,14.30
2022-10-15T23:12:00.825Z,14.30
2022-10-15T23:14:31.057Z,14.30
2022-10-15T23:17:01.448Z,14.30
2022-10-15T23:19:32.139Z,14.30
2022-10-15T23:22:03.563Z,14.30
2022-10-15T23:24:36.352Z,14.20
2022-10-15T23:27:06.631Z,14.30
2022-10-15T23:29:36.812Z,14.30
2022-10-15T23:32:07.264Z,14.20
2022-10-15T23:34:37.440Z,14.20
2022-10-15T23:37:07.570Z,14.20
2022-10-15T23:39:40.331Z,14.20
2022-10-15T23:42:10.533Z,14.20
2022-10-15T23:44:40.641Z,14.20
2022-10-15T23:47:10.799Z,14.20
2022-10-15T23:49:40.996Z,14.20
2022-10-15T23:52:11.105Z,14.20
2022-10-15T23:54:44.246Z,14.20
2022-10-15T23:57:14.414Z,14.20
2022-10-15T23:59:44.713Z,14.20
